sensor_id;sensor_type;location;lat;lon;timestamp;P1;durP1;ratioP1;P2;durP2;ratioP2
40955;SDS011;26687;48.254;11.454;2023-04-07T00:02:59;9.02;;;7.55;;
40955;SDS011;26687;48.254;11.454;2023-04-07T00:06:01;7.90;;;6.82;;
40955;SDS011;26687;48.254;11.454;2023-04-07T00:09:01;7.43;;;6.72;;
40955;SDS011;26687;48.254;11.454;2023-04-07T00:12:01;8.03;;;7.20;;
40955;SDS011;26687;48.254;11.454;2023-04-07T00:15:01;8.30;;;7.30;;
40955;SDS011;26687;48.254;11.454;2023-04-07T00:18:02;7.07;;;6.47;;
40955;SDS011;26687;48.254;11.454;2023-04-07T00:21:02;8.40;;;6.07;;
40955;SDS011;26687;48.254;11.454;2023-04-07T00:24:03;6.20;;;5.60;;
40955;SDS011;26687;48.254;11.454;2023-04-07T00:27:03;6.70;;;6.10;;
40955;SDS011;26687;48.254;11.454;2023-04-07T00:30:04;6.63;;;5.87;;
40955;SDS011;26687;48.254;11.454;2023-04-07T00:33:04;6.68;;;5.70;;
40955;SDS011;26687;48.254;11.454;2023-04-07T00:36:04;6.10;;;5.43;;
40955;SDS011;26687;48.254;11.454;2023-04-07T00:39:05;8.20;;;6.30;;
40955;SDS011;26687;48.254;11.454;2023-04-07T00:42:05;9.37;;;5.73;;
40955;SDS011;26687;48.254;11.454;2023-04-07T00:45:06;6.13;;;5.55;;
40955;SDS011;26687;48.254;11.454;2023-04-07T00:48:07;6.20;;;5.70;;
40955;SDS011;26687;48.254;11.454;2023-04-07T00:51:07;6.13;;;5.53;;
40955;SDS011;26687;48.254;11.454;2023-04-07T00:54:07;6.40;;;5.80;;
40955;SDS011;26687;48.254;11.454;2023-04-07T00:57:08;6.40;;;5.80;;
40955;SDS011;26687;48.254;11.454;2023-04-07T01:00:08;7.07;;;6.38;;
40955;SDS011;26687;48.254;11.454;2023-04-07T01:03:09;7.93;;;6.15;;
40955;SDS011;26687;48.254;11.454;2023-04-07T01:06:13;6.65;;;6.05;;
40955;SDS011;26687;48.254;11.454;2023-04-07T01:09:15;7.47;;;6.57;;
40955;SDS011;26687;48.254;11.454;2023-04-07T01:12:17;7.35;;;6.70;;
40955;SDS011;26687;48.254;11.454;2023-04-07T01:15:23;7.53;;;6.25;;
40955;SDS011;26687;48.254;11.454;2023-04-07T01:18:25;6.78;;;6.18;;
40955;SDS011;26687;48.254;11.454;2023-04-07T01:21:27;7.50;;;6.38;;
40955;SDS011;26687;48.254;11.454;2023-04-07T01:27:39;8.52;;;6.68;;
40955;SDS011;26687;48.254;11.454;2023-04-07T01:30:41;7.38;;;6.68;;
40955;SDS011;26687;48.254;11.454;2023-04-07T01:33:42;7.20;;;6.55;;
40955;SDS011;26687;48.254;11.454;2023-04-07T01:36:44;7.40;;;6.68;;
40955;SDS011;26687;48.254;11.454;2023-04-07T01:39:45;6.97;;;6.25;;
40955;SDS011;26687;48.254;11.454;2023-04-07T01:42:45;6.95;;;6.20;;
40955;SDS011;26687;48.254;11.454;2023-04-07T01:45:46;7.15;;;6.45;;
40955;SDS011;26687;48.254;11.454;2023-04-07T01:48:46;6.30;;;5.70;;
40955;SDS011;26687;48.254;11.454;2023-04-07T01:51:47;6.30;;;5.60;;
40955;SDS011;26687;48.254;11.454;2023-04-07T01:54:51;6.30;;;5.70;;
40955;SDS011;26687;48.254;11.454;2023-04-07T01:57:52;6.97;;;6.00;;
40955;SDS011;26687;48.254;11.454;2023-04-07T02:00:52;5.60;;;4.90;;
40955;SDS011;26687;48.254;11.454;2023-04-07T02:04:11;4.93;;;4.53;;
40955;SDS011;26687;48.254;11.454;2023-04-07T02:07:18;4.53;;;4.07;;
40955;SDS011;26687;48.254;11.454;2023-04-07T02:10:20;4.32;;;3.92;;
40955;SDS011;26687;48.254;11.454;2023-04-07T02:13:21;4.00;;;3.50;;
40955;SDS011;26687;48.254;11.454;2023-04-07T02:16:22;3.85;;;3.55;;
40955;SDS011;26687;48.254;11.454;2023-04-07T02:19:24;3.63;;;3.33;;
40955;SDS011;26687;48.254;11.454;2023-04-07T02:22:25;3.58;;;3.28;;
40955;SDS011;26687;48.254;11.454;2023-04-07T02:25:26;3.30;;;3.00;;
40955;SDS011;26687;48.254;11.454;2023-04-07T02:28:27;3.63;;;3.00;;
40955;SDS011;26687;48.254;11.454;2023-04-07T02:31:27;2.90;;;2.70;;
40955;SDS011;26687;48.254;11.454;2023-04-07T02:34:27;3.20;;;2.90;;
40955;SDS011;26687;48.254;11.454;2023-04-07T02:37:27;2.88;;;2.67;;
40955;SDS011;26687;48.254;11.454;2023-04-07T02:40:27;2.75;;;2.47;;
40955;SDS011;26687;48.254;11.454;2023-04-07T02:43:27;2.60;;;2.40;;
40955;SDS011;26687;48.254;11.454;2023-04-07T02:46:28;2.70;;;2.50;;
40955;SDS011;26687;48.254;11.454;2023-04-07T02:49:28;2.80;;;2.60;;
40955;SDS011;26687;48.254;11.454;2023-04-07T02:52:28;2.85;;;2.30;;
40955;SDS011;26687;48.254;11.454;2023-04-07T02:55:28;2.70;;;2.47;;
40955;SDS011;26687;48.254;11.454;2023-04-07T02:58:28;2.47;;;2.27;;
40955;SDS011;26687;48.254;11.454;2023-04-07T03:01:29;2.50;;;2.30;;
40955;SDS011;26687;48.254;11.454;2023-04-07T03:04:29;2.50;;;2.30;;
40955;SDS011;26687;48.254;11.454;2023-04-07T03:07:30;2.53;;;2.30;;
40955;SDS011;26687;48.254;11.454;2023-04-07T03:10:30;2.90;;;2.53;;
40955;SDS011;26687;48.254;11.454;2023-04-07T03:13:31;2.67;;;2.47;;
40955;SDS011;26687;48.254;11.454;2023-04-07T03:16:31;3.08;;;2.53;;
40955;SDS011;26687;48.254;11.454;2023-04-07T03:19:31;3.20;;;2.47;;
40955;SDS011;26687;48.254;11.454;2023-04-07T03:22:31;2.73;;;2.53;;
40955;SDS011;26687;48.254;11.454;2023-04-07T03:25:31;2.72;;;2.25;;
40955;SDS011;26687;48.254;11.454;2023-04-07T03:28:32;4.78;;;2.42;;
40955;SDS011;26687;48.254;11.454;2023-04-07T03:31:32;2.53;;;2.28;;
40955;SDS011;26687;48.254;11.454;2023-04-07T03:34:32;2.60;;;2.40;;
40955;SDS011;26687;48.254;11.454;2023-04-07T03:37:32;2.47;;;2.05;;
40955;SDS011;26687;48.254;11.454;2023-04-07T03:40:33;3.25;;;2.70;;
40955;SDS011;26687;48.254;11.454;2023-04-07T03:43:34;3.90;;;2.42;;
40955;SDS011;26687;48.254;11.454;2023-04-07T03:46:34;2.60;;;2.38;;
40955;SDS011;26687;48.254;11.454;2023-04-07T03:49:35;2.93;;;2.57;;
40955;SDS011;26687;48.254;11.454;2023-04-07T03:52:37;3.00;;;2.70;;
40955;SDS011;26687;48.254;11.454;2023-04-07T03:55:37;3.23;;;2.93;;
40955;SDS011;26687;48.254;11.454;2023-04-07T03:58:37;2.88;;;2.58;;
40955;SDS011;26687;48.254;11.454;2023-04-07T04:01:40;2.95;;;2.50;;
40955;SDS011;26687;48.254;11.454;2023-04-07T04:04:40;3.30;;;3.00;;
40955;SDS011;26687;48.254;11.454;2023-04-07T04:07:40;3.50;;;2.65;;
40955;SDS011;26687;48.254;11.454;2023-04-07T04:10:41;3.20;;;2.90;;
40955;SDS011;26687;48.254;11.454;2023-04-07T04:13:41;3.08;;;2.60;;
40955;SDS011;26687;48.254;11.454;2023-04-07T04:16:41;2.60;;;2.40;;
40955;SDS011;26687;48.254;11.454;2023-04-07T04:19:41;2.97;;;2.78;;
40955;SDS011;26687;48.254;11.454;2023-04-07T04:22:42;4.00;;;2.72;;
40955;SDS011;26687;48.254;11.454;2023-04-07T04:25:42;3.23;;;2.93;;
40955;SDS011;26687;48.254;11.454;2023-04-07T04:28:42;3.38;;;2.83;;
40955;SDS011;26687;48.254;11.454;2023-04-07T04:31:42;3.65;;;2.78;;
40955;SDS011;26687;48.254;11.454;2023-04-07T04:34:42;3.83;;;2.90;;
40955;SDS011;26687;48.254;11.454;2023-04-07T04:37:42;3.40;;;3.10;;
40955;SDS011;26687;48.254;11.454;2023-04-07T04:40:43;2.97;;;2.65;;
40955;SDS011;26687;48.254;11.454;2023-04-07T04:43:43;4.72;;;3.17;;
40955;SDS011;26687;48.254;11.454;2023-04-07T04:46:43;3.43;;;3.13;;
40955;SDS011;26687;48.254;11.454;2023-04-07T04:49:44;3.60;;;2.58;;
40955;SDS011;26687;48.254;11.454;2023-04-07T04:52:44;3.10;;;2.90;;
40955;SDS011;26687;48.254;11.454;2023-04-07T04:55:44;3.13;;;2.93;;
40955;SDS011;26687;48.254;11.454;2023-04-07T04:58:47;3.75;;;3.35;;
40955;SDS011;26687;48.254;11.454;2023-04-07T05:01:47;3.47;;;3.10;;
40955;SDS011;26687;48.254;11.454;2023-04-07T05:04:47;3.50;;;3.20;;
40955;SDS011;26687;48.254;11.454;2023-04-07T05:07:47;3.75;;;3.45;;
40955;SDS011;26687;48.254;11.454;2023-04-07T05:10:47;3.90;;;3.60;;
40955;SDS011;26687;48.254;11.454;2023-04-07T05:13:47;3.70;;;3.40;;
40955;SDS011;26687;48.254;11.454;2023-04-07T05:16:48;4.43;;;4.03;;
40955;SDS011;26687;48.254;11.454;2023-04-07T05:19:48;4.23;;;3.93;;
40955;SDS011;26687;48.254;11.454;2023-04-07T05:22:49;4.50;;;4.10;;
40955;SDS011;26687;48.254;11.454;2023-04-07T05:25:49;4.17;;;3.77;;
40955;SDS011;26687;48.254;11.454;2023-04-07T05:28:50;4.65;;;4.25;;
40955;SDS011;26687;48.254;11.454;2023-04-07T05:31:50;4.87;;;4.47;;
40955;SDS011;26687;48.254;11.454;2023-04-07T05:34:50;4.80;;;4.30;;
40955;SDS011;26687;48.254;11.454;2023-04-07T05:37:50;4.80;;;4.40;;
40955;SDS011;26687;48.254;11.454;2023-04-07T05:40:51;5.00;;;4.60;;
40955;SDS011;26687;48.254;11.454;2023-04-07T05:43:51;4.90;;;4.50;;
40955;SDS011;26687;48.254;11.454;2023-04-07T05:46:51;5.20;;;4.70;;
40955;SDS011;26687;48.254;11.454;2023-04-07T05:49:52;5.03;;;4.50;;
40955;SDS011;26687;48.254;11.454;2023-04-07T05:52:52;4.88;;;4.47;;
40955;SDS011;26687;48.254;11.454;2023-04-07T05:55:52;4.90;;;4.50;;
40955;SDS011;26687;48.254;11.454;2023-04-07T05:58:52;5.50;;;5.00;;
40955;SDS011;26687;48.254;11.454;2023-04-07T06:01:52;4.67;;;4.27;;
40955;SDS011;26687;48.254;11.454;2023-04-07T06:04:53;5.65;;;4.78;;
40955;SDS011;26687;48.254;11.454;2023-04-07T06:07:53;5.50;;;5.00;;
40955;SDS011;26687;48.254;11.454;2023-04-07T06:10:53;6.27;;;4.90;;
40955;SDS011;26687;48.254;11.454;2023-04-07T06:13:53;5.50;;;5.00;;
40955;SDS011;26687;48.254;11.454;2023-04-07T06:16:54;5.25;;;4.75;;
40955;SDS011;26687;48.254;11.454;2023-04-07T06:19:54;5.22;;;4.82;;
40955;SDS011;26687;48.254;11.454;2023-04-07T06:22:54;5.50;;;5.00;;
40955;SDS011;26687;48.254;11.454;2023-04-07T06:25:55;5.05;;;4.55;;
40955;SDS011;26687;48.254;11.454;2023-04-07T06:28:55;5.53;;;5.03;;
40955;SDS011;26687;48.254;11.454;2023-04-07T06:31:55;5.87;;;5.27;;
40955;SDS011;26687;48.254;11.454;2023-04-07T06:34:55;5.63;;;5.03;;
40955;SDS011;26687;48.254;11.454;2023-04-07T06:37:55;5.73;;;5.23;;
40955;SDS011;26687;48.254;11.454;2023-04-07T06:40:56;6.07;;;5.47;;
40955;SDS011;26687;48.254;11.454;2023-04-07T06:43:56;5.43;;;4.93;;
40955;SDS011;26687;48.254;11.454;2023-04-07T06:46:56;5.07;;;4.57;;
40955;SDS011;26687;48.254;11.454;2023-04-07T06:49:57;5.63;;;5.13;;
40955;SDS011;26687;48.254;11.454;2023-04-07T06:52:57;5.22;;;4.72;;
40955;SDS011;26687;48.254;11.454;2023-04-07T06:56:07;4.90;;;4.50;;
40955;SDS011;26687;48.254;11.454;2023-04-07T06:59:08;6.15;;;5.03;;
40955;SDS011;26687;48.254;11.454;2023-04-07T07:02:08;6.13;;;5.63;;
40955;SDS011;26687;48.254;11.454;2023-04-07T07:05:08;5.63;;;5.13;;
40955;SDS011;26687;48.254;11.454;2023-04-07T07:08:10;6.22;;;5.00;;
40955;SDS011;26687;48.254;11.454;2023-04-07T07:11:10;5.80;;;5.30;;
40955;SDS011;26687;48.254;11.454;2023-04-07T07:14:10;5.30;;;4.90;;
40955;SDS011;26687;48.254;11.454;2023-04-07T07:17:10;5.28;;;4.85;;
40955;SDS011;26687;48.254;11.454;2023-04-07T07:20:11;5.88;;;5.38;;
40955;SDS011;26687;48.254;11.454;2023-04-07T07:23:11;5.70;;;5.20;;
40955;SDS011;26687;48.254;11.454;2023-04-07T07:26:11;5.83;;;5.07;;
40955;SDS011;26687;48.254;11.454;2023-04-07T07:29:11;6.85;;;5.40;;
40955;SDS011;26687;48.254;11.454;2023-04-07T07:32:11;5.80;;;5.20;;
40955;SDS011;26687;48.254;11.454;2023-04-07T07:35:12;5.53;;;5.03;;
40955;SDS011;26687;48.254;11.454;2023-04-07T07:38:12;6.10;;;5.40;;
40955;SDS011;26687;48.254;11.454;2023-04-07T07:41:12;6.28;;;5.72;;
40955;SDS011;26687;48.254;11.454;2023-04-07T07:44:12;5.38;;;4.88;;
40955;SDS011;26687;48.254;11.454;2023-04-07T07:47:12;5.80;;;5.30;;
40955;SDS011;26687;48.254;11.454;2023-04-07T07:50:13;6.10;;;5.30;;
40955;SDS011;26687;48.254;11.454;2023-04-07T07:53:13;5.43;;;4.88;;
40955;SDS011;26687;48.254;11.454;2023-04-07T07:56:13;5.20;;;4.70;;
40955;SDS011;26687;48.254;11.454;2023-04-07T07:59:13;5.47;;;4.85;;
40955;SDS011;26687;48.254;11.454;2023-04-07T08:02:13;5.70;;;5.10;;
40955;SDS011;26687;48.254;11.454;2023-04-07T08:05:14;5.47;;;5.03;;
40955;SDS011;26687;48.254;11.454;2023-04-07T08:08:14;5.40;;;4.77;;
40955;SDS011;26687;48.254;11.454;2023-04-07T08:11:14;5.70;;;5.10;;
40955;SDS011;26687;48.254;11.454;2023-04-07T08:14:18;5.88;;;5.20;;
40955;SDS011;26687;48.254;11.454;2023-04-07T08:17:18;5.20;;;4.80;;
40955;SDS011;26687;48.254;11.454;2023-04-07T08:20:18;5.60;;;5.10;;
40955;SDS011;26687;48.254;11.454;2023-04-07T08:23:18;5.80;;;5.30;;
40955;SDS011;26687;48.254;11.454;2023-04-07T08:26:18;6.10;;;5.60;;
40955;SDS011;26687;48.254;11.454;2023-04-07T08:29:19;7.00;;;5.80;;
40955;SDS011;26687;48.254;11.454;2023-04-07T08:32:19;6.33;;;5.40;;
40955;SDS011;26687;48.254;11.454;2023-04-07T08:35:19;5.80;;;5.28;;
40955;SDS011;26687;48.254;11.454;2023-04-07T08:38:19;6.10;;;5.50;;
40955;SDS011;26687;48.254;11.454;2023-04-07T08:41:23;6.03;;;5.43;;
40955;SDS011;26687;48.254;11.454;2023-04-07T08:44:26;5.88;;;5.32;;
40955;SDS011;26687;48.254;11.454;2023-04-07T08:47:27;6.20;;;5.70;;
40955;SDS011;26687;48.254;11.454;2023-04-07T08:50:29;6.10;;;5.60;;
40955;SDS011;26687;48.254;11.454;2023-04-07T08:53:49;6.68;;;5.68;;
40955;SDS011;26687;48.254;11.454;2023-04-07T08:56:50;6.20;;;5.68;;
40955;SDS011;26687;48.254;11.454;2023-04-07T08:59:50;6.57;;;5.90;;
40955;SDS011;26687;48.254;11.454;2023-04-07T09:02:50;6.50;;;5.93;;
40955;SDS011;26687;48.254;11.454;2023-04-07T09:05:51;5.95;;;5.45;;
40955;SDS011;26687;48.254;11.454;2023-04-07T09:08:51;6.22;;;5.63;;
40955;SDS011;26687;48.254;11.454;2023-04-07T09:11:52;6.10;;;5.60;;
40955;SDS011;26687;48.254;11.454;2023-04-07T09:14:52;6.18;;;5.63;;
40955;SDS011;26687;48.254;11.454;2023-04-07T09:17:52;5.88;;;5.28;;
40955;SDS011;26687;48.254;11.454;2023-04-07T09:20:57;6.25;;;5.75;;
40955;SDS011;26687;48.254;11.454;2023-04-07T09:23:57;6.47;;;5.88;;
40955;SDS011;26687;48.254;11.454;2023-04-07T09:27:10;6.50;;;5.90;;
40955;SDS011;26687;48.254;11.454;2023-04-07T09:30:13;6.53;;;6.00;;
40955;SDS011;26687;48.254;11.454;2023-04-07T09:33:14;6.40;;;5.80;;
40955;SDS011;26687;48.254;11.454;2023-04-07T09:36:15;6.20;;;5.70;;
40955;SDS011;26687;48.254;11.454;2023-04-07T09:39:15;6.67;;;6.00;;
40955;SDS011;26687;48.254;11.454;2023-04-07T09:42:15;6.40;;;5.88;;
40955;SDS011;26687;48.254;11.454;2023-04-07T09:45:25;6.88;;;6.10;;
40955;SDS011;26687;48.254;11.454;2023-04-07T09:48:25;6.15;;;5.63;;
40955;SDS011;26687;48.254;11.454;2023-04-07T09:51:26;6.25;;;5.65;;
40955;SDS011;26687;48.254;11.454;2023-04-07T09:54:30;6.13;;;5.63;;
40955;SDS011;26687;48.254;11.454;2023-04-07T09:57:31;5.60;;;5.10;;
40955;SDS011;26687;48.254;11.454;2023-04-07T10:00:31;5.73;;;5.23;;
40955;SDS011;26687;48.254;11.454;2023-04-07T10:03:31;5.68;;;5.00;;
40955;SDS011;26687;48.254;11.454;2023-04-07T10:06:32;6.00;;;5.50;;
40955;SDS011;26687;48.254;11.454;2023-04-07T10:09:33;6.23;;;5.33;;
40955;SDS011;26687;48.254;11.454;2023-04-07T10:12:33;5.43;;;4.93;;
40955;SDS011;26687;48.254;11.454;2023-04-07T10:15:35;6.55;;;5.80;;
40955;SDS011;26687;48.254;11.454;2023-04-07T10:18:35;6.50;;;5.88;;
40955;SDS011;26687;48.254;11.454;2023-04-07T10:21:36;6.65;;;6.05;;
40955;SDS011;26687;48.254;11.454;2023-04-07T10:24:55;6.40;;;5.88;;
40955;SDS011;26687;48.254;11.454;2023-04-07T10:28:07;6.53;;;5.97;;
40955;SDS011;26687;48.254;11.454;2023-04-07T10:31:08;5.78;;;5.25;;
40955;SDS011;26687;48.254;11.454;2023-04-07T10:34:09;5.90;;;5.25;;
40955;SDS011;26687;48.254;11.454;2023-04-07T10:37:10;5.83;;;5.33;;
40955;SDS011;26687;48.254;11.454;2023-04-07T10:43:35;5.88;;;5.43;;
40955;SDS011;26687;48.254;11.454;2023-04-07T10:53:08;6.28;;;5.72;;
40955;SDS011;26687;48.254;11.454;2023-04-07T10:56:08;6.43;;;5.82;;
40955;SDS011;26687;48.254;11.454;2023-04-07T10:59:15;5.90;;;5.40;;
40955;SDS011;26687;48.254;11.454;2023-04-07T11:05:20;6.32;;;5.72;;
40955;SDS011;26687;48.254;11.454;2023-04-07T11:08:40;6.63;;;6.10;;
40955;SDS011;26687;48.254;11.454;2023-04-07T11:11:41;5.90;;;5.40;;
40955;SDS011;26687;48.254;11.454;2023-04-07T11:14:41;5.77;;;5.37;;
40955;SDS011;26687;48.254;11.454;2023-04-07T11:17:41;6.50;;;5.97;;
40955;SDS011;26687;48.254;11.454;2023-04-07T11:20:42;6.15;;;5.65;;
40955;SDS011;26687;48.254;11.454;2023-04-07T11:23:43;6.05;;;5.53;;
40955;SDS011;26687;48.254;11.454;2023-04-07T11:26:44;6.50;;;5.90;;
40955;SDS011;26687;48.254;11.454;2023-04-07T11:29:44;7.20;;;6.05;;
40955;SDS011;26687;48.254;11.454;2023-04-07T11:32:46;6.18;;;5.68;;
40955;SDS011;26687;48.254;11.454;2023-04-07T11:35:57;6.45;;;5.85;;
40955;SDS011;26687;48.254;11.454;2023-04-07T11:38:58;6.10;;;5.60;;
40955;SDS011;26687;48.254;11.454;2023-04-07T11:41:58;6.10;;;5.60;;
40955;SDS011;26687;48.254;11.454;2023-04-07T11:44:58;6.32;;;5.70;;
40955;SDS011;26687;48.254;11.454;2023-04-07T11:47:59;7.43;;;6.72;;
40955;SDS011;26687;48.254;11.454;2023-04-07T11:50:59;6.63;;;6.13;;
40955;SDS011;26687;48.254;11.454;2023-04-07T11:54:00;6.32;;;5.82;;
40955;SDS011;26687;48.254;11.454;2023-04-07T11:57:01;8.02;;;7.22;;
40955;SDS011;26687;48.254;11.454;2023-04-07T12:00:05;6.68;;;6.07;;
40955;SDS011;26687;48.254;11.454;2023-04-07T12:03:08;6.68;;;6.03;;
40955;SDS011;26687;48.254;11.454;2023-04-07T12:06:09;5.90;;;5.40;;
40955;SDS011;26687;48.254;11.454;2023-04-07T12:09:29;6.85;;;6.05;;
40955;SDS011;26687;48.254;11.454;2023-04-07T12:12:29;7.07;;;6.53;;
40955;SDS011;26687;48.254;11.454;2023-04-07T12:15:32;5.82;;;5.32;;
40955;SDS011;26687;48.254;11.454;2023-04-07T12:18:32;7.95;;;7.25;;
40955;SDS011;26687;48.254;11.454;2023-04-07T12:21:32;10.27;;;9.27;;
40955;SDS011;26687;48.254;11.454;2023-04-07T12:24:32;5.35;;;4.93;;
40955;SDS011;26687;48.254;11.454;2023-04-07T12:27:32;6.35;;;5.78;;
40955;SDS011;26687;48.254;11.454;2023-04-07T12:30:33;5.93;;;5.32;;
40955;SDS011;26687;48.254;11.454;2023-04-07T12:33:33;6.82;;;6.25;;
40955;SDS011;26687;48.254;11.454;2023-04-07T12:36:33;7.60;;;6.90;;
40955;SDS011;26687;48.254;11.454;2023-04-07T12:39:34;5.30;;;4.80;;
40955;SDS011;26687;48.254;11.454;2023-04-07T12:42:34;6.03;;;5.43;;
40955;SDS011;26687;48.254;11.454;2023-04-07T12:45:34;6.27;;;5.23;;
40955;SDS011;26687;48.254;11.454;2023-04-07T12:48:34;6.00;;;5.10;;
40955;SDS011;26687;48.254;11.454;2023-04-07T12:51:35;5.60;;;5.18;;
40955;SDS011;26687;48.254;11.454;2023-04-07T12:54:35;16.80;;;15.50;;
40955;SDS011;26687;48.254;11.454;2023-04-07T12:57:35;5.00;;;4.60;;
40955;SDS011;26687;48.254;11.454;2023-04-07T13:00:36;4.47;;;4.07;;
40955;SDS011;26687;48.254;11.454;2023-04-07T13:03:36;5.47;;;4.80;;
40955;SDS011;26687;48.254;11.454;2023-04-07T13:06:37;4.95;;;3.90;;
40955;SDS011;26687;48.254;11.454;2023-04-07T13:09:37;4.82;;;4.38;;
40955;SDS011;26687;48.254;11.454;2023-04-07T13:12:38;5.25;;;4.85;;
40955;SDS011;26687;48.254;11.454;2023-04-07T13:15:39;5.10;;;4.60;;
40955;SDS011;26687;48.254;11.454;2023-04-07T13:18:39;5.38;;;4.32;;
40955;SDS011;26687;48.254;11.454;2023-04-07T13:21:39;4.88;;;4.15;;
40955;SDS011;26687;48.254;11.454;2023-04-07T13:24:39;5.23;;;4.73;;
40955;SDS011;26687;48.254;11.454;2023-04-07T13:27:40;5.82;;;5.35;;
40955;SDS011;26687;48.254;11.454;2023-04-07T13:30:40;4.90;;;4.50;;
40955;SDS011;26687;48.254;11.454;2023-04-07T13:33:40;5.23;;;4.73;;
40955;SDS011;26687;48.254;11.454;2023-04-07T13:36:41;6.22;;;5.28;;
40955;SDS011;26687;48.254;11.454;2023-04-07T13:39:41;5.47;;;5.07;;
40955;SDS011;26687;48.254;11.454;2023-04-07T13:42:41;5.15;;;4.75;;
40955;SDS011;26687;48.254;11.454;2023-04-07T13:45:42;5.25;;;4.75;;
40955;SDS011;26687;48.254;11.454;2023-04-07T13:48:45;6.03;;;5.43;;
40955;SDS011;26687;48.254;11.454;2023-04-07T13:54:45;6.28;;;5.00;;
40955;SDS011;26687;48.254;11.454;2023-04-07T13:57:45;5.63;;;4.90;;
40955;SDS011;26687;48.254;11.454;2023-04-07T14:00:46;4.97;;;4.50;;
40955;SDS011;26687;48.254;11.454;2023-04-07T14:03:46;4.60;;;4.20;;
40955;SDS011;26687;48.254;11.454;2023-04-07T14:06:46;4.95;;;4.40;;
40955;SDS011;26687;48.254;11.454;2023-04-07T14:09:47;4.80;;;4.40;;
40955;SDS011;26687;48.254;11.454;2023-04-07T14:12:47;4.72;;;4.30;;
40955;SDS011;26687;48.254;11.454;2023-04-07T14:15:48;4.60;;;4.03;;
40955;SDS011;26687;48.254;11.454;2023-04-07T14:18:48;4.35;;;4.05;;
40955;SDS011;26687;48.254;11.454;2023-04-07T14:21:50;5.32;;;4.28;;
40955;SDS011;26687;48.254;11.454;2023-04-07T14:24:50;5.13;;;4.73;;
40955;SDS011;26687;48.254;11.454;2023-04-07T14:27:51;5.20;;;4.70;;
40955;SDS011;26687;48.254;11.454;2023-04-07T14:30:51;5.10;;;4.70;;
40955;SDS011;26687;48.254;11.454;2023-04-07T14:33:51;4.43;;;4.03;;
40955;SDS011;26687;48.254;11.454;2023-04-07T14:36:52;4.60;;;3.97;;
40955;SDS011;26687;48.254;11.454;2023-04-07T14:39:53;6.68;;;6.07;;
40955;SDS011;26687;48.254;11.454;2023-04-07T14:42:53;5.78;;;4.97;;
40955;SDS011;26687;48.254;11.454;2023-04-07T14:45:54;4.90;;;4.50;;
40955;SDS011;26687;48.254;11.454;2023-04-07T14:48:55;4.50;;;4.13;;
40955;SDS011;26687;48.254;11.454;2023-04-07T14:51:57;5.78;;;4.45;;
40955;SDS011;26687;48.254;11.454;2023-04-07T14:54:57;4.40;;;4.00;;
40955;SDS011;26687;48.254;11.454;2023-04-07T14:57:58;6.47;;;5.97;;
40955;SDS011;26687;48.254;11.454;2023-04-07T15:00:58;5.28;;;4.78;;
40955;SDS011;26687;48.254;11.454;2023-04-07T15:03:58;5.38;;;4.97;;
40955;SDS011;26687;48.254;11.454;2023-04-07T15:06:59;4.75;;;4.35;;
40955;SDS011;26687;48.254;11.454;2023-04-07T15:09:59;4.65;;;4.25;;
40955;SDS011;26687;48.254;11.454;2023-04-07T15:13:00;4.37;;;4.00;;
40955;SDS011;26687;48.254;11.454;2023-04-07T15:16:09;5.07;;;4.63;;
40955;SDS011;26687;48.254;11.454;2023-04-07T15:19:10;5.28;;;4.00;;
40955;SDS011;26687;48.254;11.454;2023-04-07T15:22:10;4.47;;;4.07;;
40955;SDS011;26687;48.254;11.454;2023-04-07T15:25:10;4.60;;;4.00;;
40955;SDS011;26687;48.254;11.454;2023-04-07T15:28:10;4.60;;;4.30;;
40955;SDS011;26687;48.254;11.454;2023-04-07T15:31:10;6.20;;;5.35;;
40955;SDS011;26687;48.254;11.454;2023-04-07T15:34:11;4.28;;;3.92;;
40955;SDS011;26687;48.254;11.454;2023-04-07T15:37:11;4.50;;;4.10;;
40955;SDS011;26687;48.254;11.454;2023-04-07T15:40:13;5.25;;;4.75;;
40955;SDS011;26687;48.254;11.454;2023-04-07T15:43:13;4.67;;;4.10;;
40955;SDS011;26687;48.254;11.454;2023-04-07T15:46:14;4.50;;;4.20;;
40955;SDS011;26687;48.254;11.454;2023-04-07T15:49:14;5.78;;;5.28;;
40955;SDS011;26687;48.254;11.454;2023-04-07T15:52:19;4.40;;;4.00;;
40955;SDS011;26687;48.254;11.454;2023-04-07T15:55:19;3.97;;;3.67;;
40955;SDS011;26687;48.254;11.454;2023-04-07T15:58:19;4.72;;;4.32;;
40955;SDS011;26687;48.254;11.454;2023-04-07T16:01:19;4.45;;;4.05;;
40955;SDS011;26687;48.254;11.454;2023-04-07T16:04:19;4.93;;;4.43;;
40955;SDS011;26687;48.254;11.454;2023-04-07T16:07:20;4.80;;;4.40;;
40955;SDS011;26687;48.254;11.454;2023-04-07T16:10:20;4.20;;;3.80;;
40955;SDS011;26687;48.254;11.454;2023-04-07T16:13:20;4.53;;;4.15;;
40955;SDS011;26687;48.254;11.454;2023-04-07T16:16:20;4.57;;;4.10;;
40955;SDS011;26687;48.254;11.454;2023-04-07T16:19:20;4.37;;;4.03;;
40955;SDS011;26687;48.254;11.454;2023-04-07T16:22:21;4.97;;;4.50;;
40955;SDS011;26687;48.254;11.454;2023-04-07T16:25:21;4.70;;;4.30;;
40955;SDS011;26687;48.254;11.454;2023-04-07T16:28:21;4.43;;;4.13;;
40955;SDS011;26687;48.254;11.454;2023-04-07T16:31:21;5.13;;;4.63;;
40955;SDS011;26687;48.254;11.454;2023-04-07T16:34:21;4.40;;;4.00;;
40955;SDS011;26687;48.254;11.454;2023-04-07T16:37:22;4.70;;;4.30;;
40955;SDS011;26687;48.254;11.454;2023-04-07T16:40:22;4.60;;;4.20;;
40955;SDS011;26687;48.254;11.454;2023-04-07T16:43:22;3.78;;;3.42;;
40955;SDS011;26687;48.254;11.454;2023-04-07T16:46:22;4.00;;;3.70;;
40955;SDS011;26687;48.254;11.454;2023-04-07T16:52:26;4.88;;;3.47;;
40955;SDS011;26687;48.254;11.454;2023-04-07T16:55:26;9.80;;;9.10;;
40955;SDS011;26687;48.254;11.454;2023-04-07T16:58:26;4.10;;;3.78;;
40955;SDS011;26687;48.254;11.454;2023-04-07T17:01:27;3.83;;;3.50;;
40955;SDS011;26687;48.254;11.454;2023-04-07T17:04:27;3.80;;;3.50;;
40955;SDS011;26687;48.254;11.454;2023-04-07T17:07:27;4.18;;;3.72;;
40955;SDS011;26687;48.254;11.454;2023-04-07T17:10:27;4.67;;;4.27;;
40955;SDS011;26687;48.254;11.454;2023-04-07T17:13:27;6.47;;;5.87;;
40955;SDS011;26687;48.254;11.454;2023-04-07T17:16:27;5.53;;;5.03;;
40955;SDS011;26687;48.254;11.454;2023-04-07T17:19:28;6.57;;;6.10;;
40955;SDS011;26687;48.254;11.454;2023-04-07T17:22:28;12.03;;;11.23;;
40955;SDS011;26687;48.254;11.454;2023-04-07T17:25:28;8.20;;;7.60;;
40955;SDS011;26687;48.254;11.454;2023-04-07T17:28:28;4.50;;;4.10;;
40955;SDS011;26687;48.254;11.454;2023-04-07T17:31:29;5.05;;;4.65;;
40955;SDS011;26687;48.254;11.454;2023-04-07T17:34:29;4.50;;;4.10;;
40955;SDS011;26687;48.254;11.454;2023-04-07T17:37:29;3.83;;;3.53;;
40955;SDS011;26687;48.254;11.454;2023-04-07T17:40:29;4.00;;;3.60;;
40955;SDS011;26687;48.254;11.454;2023-04-07T17:43:30;4.60;;;3.70;;
40955;SDS011;26687;48.254;11.454;2023-04-07T17:46:30;4.40;;;4.00;;
40955;SDS011;26687;48.254;11.454;2023-04-07T17:49:30;4.57;;;4.18;;
40955;SDS011;26687;48.254;11.454;2023-04-07T17:52:31;4.57;;;4.18;;
40955;SDS011;26687;48.254;11.454;2023-04-07T17:55:31;4.95;;;4.50;;
40955;SDS011;26687;48.254;11.454;2023-04-07T17:58:32;5.15;;;4.75;;
40955;SDS011;26687;48.254;11.454;2023-04-07T18:01:32;4.95;;;4.45;;
40955;SDS011;26687;48.254;11.454;2023-04-07T18:04:33;6.03;;;5.53;;
40955;SDS011;26687;48.254;11.454;2023-04-07T18:07:34;7.90;;;4.95;;
40955;SDS011;26687;48.254;11.454;2023-04-07T18:10:34;5.38;;;4.88;;
40955;SDS011;26687;48.254;11.454;2023-04-07T18:13:35;4.93;;;4.53;;
40955;SDS011;26687;48.254;11.454;2023-04-07T18:16:35;4.97;;;4.57;;